Hovedside
METAR-TAF:

METAR-TAF

Lufthavner :

Rønne, Danmark

Bornholms lufthavn

breddegrad: 55-04N, lengdegrad: 014-45E, høyde over havet: 16 m

Gjeldene værobservasjon

Denne rapporten ble laget for 24 minutter siden, klokken 04:20 UTC
Vind 9 kt fra Vest-nordvest
Temperatur 4°C
Luftfuktighet 70%
Trykk 1001 hPa
Sikt 10 km eller mer

METAR: EKRN 250420Z AUTO 29009KT 9999NDV OVC094/// 04/M01 Q1001

Tid: 06:44 (04:44 UTC)

Varsel

Denne rapporten ble laget for 50 minutter siden, klokken 03:54 UTC
Varsel gyldig fra 25. klokken 04 UTC til 25. klokken 12 UTC
Vind 12 kt fra Vest
Sikt 10 km eller mer
Få skyer i en høyde av 3500 ft

TAF: EKRN 250354Z 2504/2512 28012KT 9999 FEW035

Værobservasjoner og værvarsel for over 4000 flyplasser (METAR- og TAF-rapporter).

Tilgjengelige stasjoner er representert av de røde og gule prikkene på kartet.

Hold musepekeren over prikken for å se navnet på stasjonen.

Klikk så for å se værobservasjoner og -varsler.

For å forandre kartet kan du klikke på den grønne knappen med svart kryss for å zoome inn, på den grønne knappen med strek for å zoome ut, eller på de grønne pilene for å se tilstøtende kart.


METAR-TAF: